Time;durP1;ratioP1;P1;durP2;ratioP2;P2;SDS_P1;SDS_P2;PMS_P1;PMS_P2;Temp;Humidity;BMP_temperature;BMP_pressure;BME280_temperature;BME280_humidity;BME280_pressure;Samples;Min_cycle;Max_cycle;Signal;HPM_P1;HPM_P2
2022/03/17 07:25:09;;;;;;;;;8.00;6.00;;;;;13.46;100.00;102572.44;6280688;22;46513;-91
2022/03/17 07:27:44;;;;;;;;;8.00;8.00;;;;;13.54;100.00;102574.63;6299720;22;45309;-87
2022/03/17 07:30:16;;;;;;;;;8.67;6.33;;;;;13.59;100.00;102587.34;6301295;22;45650;-88
2022/03/17 07:32:41;;;;;;;;;6.67;6.67;;;;;13.61;100.00;102590.06;6298867;22;47478;-89
2022/03/17 07:35:07;;;;;;;;;8.67;6.00;;;;;13.66;100.00;102585.97;6301381;22;45241;-88
2022/03/17 07:37:33;;;;;;;;;6.67;6.67;;;;;13.70;100.00;102589.72;6304832;22;45689;-91
2022/03/17 07:39:58;;;;;;;;;7.33;6.33;;;;;13.73;100.00;102589.94;6301038;22;45407;-89
2022/03/17 07:42:23;;;;;;;;;9.00;8.33;;;;;13.72;100.00;102603.94;6299751;22;54791;-90
2022/03/17 07:44:49;;;;;;;;;11.67;7.00;;;;;13.73;100.00;102604.03;6301287;22;45590;-89
2022/03/17 07:47:14;;;;;;;;;11.67;11.67;;;;;13.76;100.00;102608.56;6302976;22;51557;-89
2022/03/17 07:49:40;;;;;;;;;11.00;7.67;;;;;13.81;100.00;102609.78;6300983;22;45187;-89
2022/03/17 07:52:06;;;;;;;;;13.33;8.67;;;;;13.88;100.00;102603.16;6302095;22;45554;-89
2022/03/17 07:54:33;;;;;;;;;7.00;7.00;;;;;13.94;100.00;102615.84;6305305;22;45364;-89
2022/03/17 07:57:00;;;;;;;;;11.67;8.67;;;;;13.96;100.00;102627.41;6304740;22;45366;-89
2022/03/17 07:59:27;;;;;;;;;2.33;1.00;;;;;14.03;100.00;102624.31;6306166;22;45339;-90
2022/03/17 08:01:52;;;;;;;;;11.33;10.00;;;;;14.05;100.00;102625.31;6329567;22;48158;-89
2022/03/17 08:04:18;;;;;;;;;8.33;7.67;;;;;14.12;100.00;102623.06;6302772;22;45327;-89
2022/03/17 08:06:43;;;;;;;;;9.67;8.33;;;;;14.15;100.00;102626.78;6300679;22;45245;-89
2022/03/17 08:09:09;;;;;;;;;11.00;9.00;;;;;14.20;100.00;102634.97;6301726;22;45137;-89
2022/03/17 08:11:34;;;;;;;;;9.00;7.33;;;;;14.23;100.00;102643.09;6294999;22;45677;-89
2022/03/17 08:13:59;;;;;;;;;13.67;8.00;;;;;14.27;100.00;102644.22;6300089;22;45410;-88
2022/03/17 08:16:25;;;;;;;;;11.67;7.33;;;;;14.35;100.00;102645.59;6301773;22;45395;-89
2022/03/17 08:18:50;;;;;;;;;10.00;8.67;;;;;14.37;100.00;102648.31;6324796;22;45532;-89
2022/03/17 08:21:17;;;;;;;;;11.33;7.00;;;;;14.44;100.00;102663.72;6299163;22;62352;-90
2022/03/17 08:23:42;;;;;;;;;7.67;7.67;;;;;14.46;100.00;102674.34;6298173;22;45303;-89
2022/03/17 08:26:08;;;;;;;;;9.00;8.00;;;;;14.46;100.00;102683.19;6299717;22;45344;-90
2022/03/17 08:28:34;;;;;;;;;8.33;7.00;;;;;14.48;100.00;102675.38;6299865;22;45476;-90
2022/03/17 08:30:59;;;;;;;;;7.33;7.33;;;;;14.51;100.00;102671.19;6300031;22;48068;-90
2022/03/17 08:33:24;;;;;;;;;11.00;7.67;;;;;14.58;100.00;102688.34;6300009;22;46224;-89
2022/03/17 08:35:50;;;;;;;;;12.00;7.00;;;;;14.60;100.00;102681.41;6300095;22;45342;-90
2022/03/17 08:38:15;;;;;;;;;8.00;8.00;;;;;14.61;100.00;102706.09;6299640;22;45485;-90
2022/03/17 08:40:41;;;;;;;;;11.00;7.33;;;;;14.54;100.00;102715.38;6299495;22;47368;-88
2022/03/17 08:43:11;;;;;;;;;10.67;6.67;;;;;14.56;100.00;102715.50;6299429;22;45446;-89
2022/03/17 08:51:06;;;;;;;;;8.33;7.00;;;;;14.53;100.00;102732.94;6301215;22;45750;-89
2022/03/17 08:53:32;;;;;;;;;8.00;7.00;;;;;14.59;100.00;102734.16;6299455;22;45914;-89
2022/03/17 08:55:57;;;;;;;;;9.00;7.00;;;;;14.66;100.00;102733.72;6301500;22;45689;-89
2022/03/17 08:58:23;;;;;;;;;9.67;7.00;;;;;14.71;100.00;102750.78;6298460;22;45588;-89
2022/03/17 09:00:50;;;;;;;;;6.67;6.33;;;;;14.80;100.00;102746.84;6297854;22;48207;-90
2022/03/17 09:03:15;;;;;;;;;5.33;4.00;;;;;14.78;100.00;102751.13;6301742;22;45703;-90
2022/03/17 09:05:41;;;;;;;;;7.33;5.67;;;;;14.79;100.00;102751.22;6301505;22;45265;-89
2022/03/17 09:08:07;;;;;;;;;7.67;6.33;;;;;14.85;100.00;102751.59;6300472;22;45443;-90
2022/03/17 09:10:40;;;;;;;;;4.67;3.33;;;;;14.99;100.00;102755.91;6298181;22;47069;-89
2022/03/17 09:13:10;;;;;;;;;9.33;7.00;;;;;14.95;100.00;102768.03;6300655;22;45354;-89
2022/03/17 09:15:38;;;;;;;;;5.33;5.33;;;;;14.96;100.00;102773.44;6301543;22;45188;-90
2022/03/17 09:18:05;;;;;;;;;8.00;6.00;;;;;14.95;100.00;102770.69;6299725;22;45483;-90
2022/03/17 09:20:31;;;;;;;;;7.00;6.33;;;;;14.90;100.00;102769.47;6297969;22;47228;-89
2022/03/17 09:22:56;;;;;;;;;7.00;7.00;;;;;14.92;100.00;102770.50;6297674;22;45207;-90
2022/03/17 09:25:23;;;;;;;;;6.33;4.67;;;;;14.96;100.00;102773.44;6301231;22;45296;-89
2022/03/17 09:27:50;;;;;;;;;7.67;7.67;;;;;15.00;100.00;102771.88;6301491;22;45292;-89
2022/03/17 09:30:15;;;;;;;;;9.00;7.00;;;;;15.07;100.00;102783.75;6300754;22;45428;-89
2022/03/17 09:32:41;;;;;;;;;10.00;6.67;;;;;15.14;100.00;102785.91;6300146;22;45343;-89
2022/03/17 09:35:07;;;;;;;;;7.67;7.00;;;;;15.24;100.00;102797.94;6299028;22;45350;-89
2022/03/17 09:37:32;;;;;;;;;10.33;7.00;;;;;15.26;100.00;102796.31;6298491;22;45411;-89
2022/03/17 09:39:57;;;;;;;;;7.67;6.33;;;;;15.33;100.00;102797.59;6300033;22;47509;-89
2022/03/17 09:42:23;;;;;;;;;12.33;11.33;;;;;15.37;100.00;102809.25;6300691;22;45318;-90
2022/03/17 09:44:54;;;;;;;;;10.33;8.67;;;;;15.38;100.00;102819.03;6297426;22;45828;-89
2022/03/17 09:47:22;;;;;;;;;8.00;6.00;;;;;15.36;100.00;102813.63;6301556;22;45443;-90
2022/03/17 09:49:49;;;;;;;;;8.00;8.00;;;;;15.38;100.00;102817.31;6301526;22;45622;-90
2022/03/17 09:52:20;;;;;;;;;8.67;8.33;;;;;15.49;100.00;102823.19;6301049;22;45379;-90
2022/03/17 09:54:47;;;;;;;;;6.33;6.33;;;;;15.48;100.00;102825.78;6324165;22;45713;-89
2022/03/17 09:57:16;;;;;;;;;8.50;8.50;;;;;15.47;100.00;102822.22;6324015;22;45404;-89
2022/03/17 09:59:45;;;;;;;;;6.33;6.33;;;;;15.53;100.00;102821.66;6300336;22;45627;-90
2022/03/17 10:02:16;;;;;;;;;12.00;8.00;;;;;15.74;100.00;102829.03;6298300;22;45314;-90
2022/03/17 10:04:44;;;;;;;;;6.67;6.67;;;;;15.80;100.00;102823.16;6298581;22;45331;-89
2022/03/17 10:07:09;;;;;;;;;7.67;7.33;;;;;15.89;100.00;102831.63;6299461;22;45261;-89
2022/03/17 10:09:35;;;;;;;;;8.00;8.00;;;;;15.91;100.00;102829.06;6301438;22;45575;-89
2022/03/17 10:12:06;;;;;;;;;9.00;8.00;;;;;16.00;100.00;102826.03;6301329;22;45586;-89
2022/03/17 10:14:52;;;;;;;;;8.00;4.33;;;;;16.17;100.00;102829.66;6299192;22;45289;-89
2022/03/17 10:17:38;;;;;;;;;9.67;7.33;;;;;16.31;100.00;102828.66;6299826;22;45583;-90
2022/03/17 10:20:28;;;;;;;;;8.67;7.00;;;;;16.48;100.00;102831.34;6298249;22;46194;-89
2022/03/17 10:22:59;;;;;;;;;10.00;8.00;;;;;16.55;100.00;102839.63;6298556;22;45371;-89
2022/03/17 10:25:26;;;;;;;;;15.00;8.67;;;;;16.53;100.00;102839.53;6299192;22;45290;-89
2022/03/17 10:27:56;;;;;;;;;11.33;7.33;;;;;16.55;100.00;102848.47;6299796;22;45514;-89
2022/03/17 10:30:33;;;;;;;;;9.00;9.00;;;;;16.77;100.00;102854.03;6297864;22;47494;-89
2022/03/17 10:33:18;;;;;;;;;9.33;9.00;;;;;16.84;100.00;102856.19;6301473;22;45328;-90
2022/03/17 10:35:48;;;;;;;;;9.00;8.00;;;;;16.77;100.00;102867.31;6300293;22;45433;-90
2022/03/17 10:38:19;;;;;;;;;15.00;9.33;;;;;16.78;100.00;102874.41;6299864;22;45469;-90
2022/03/17 10:40:59;;;;;;;;;8.33;7.33;;;;;16.70;100.00;102884.63;6299941;22;45227;-89
2022/03/17 10:43:25;;;;;;;;;11.67;8.00;;;;;16.55;100.00;102884.69;6298353;22;45494;-89
2022/03/17 10:46:16;;;;;;;;;9.00;8.33;;;;;16.67;100.00;102876.50;6301719;22;45241;-89
2022/03/17 10:48:57;;;;;;;;;10.00;9.00;;;;;16.64;100.00;102872.88;6300423;22;45331;-89
2022/03/17 10:51:40;;;;;;;;;13.00;10.00;;;;;16.76;100.00;102877.00;6323599;22;47496;-89
2022/03/17 10:54:12;;;;;;;;;10.00;9.00;;;;;16.87;100.00;102880.22;6298877;22;45621;-89
2022/03/17 10:56:39;;;;;;;;;10.00;10.00;;;;;16.91;100.00;102878.63;6301582;22;45438;-89
2022/03/17 10:59:07;;;;;;;;;10.00;8.00;;;;;16.95;100.00;102883.28;6299553;22;45340;-89
2022/03/17 11:01:35;;;;;;;;;6.67;6.67;;;;;17.02;100.00;102898.69;6300259;22;45369;-88
2022/03/17 11:04:02;;;;;;;;;8.67;8.00;;;;;16.89;100.00;102896.22;6299461;22;45297;-88
2022/03/17 11:06:28;;;;;;;;;9.00;9.00;;;;;16.89;100.00;102882.94;6300819;22;45433;-90
2022/03/17 11:08:54;;;;;;;;;10.00;9.00;;;;;16.94;100.00;102881.47;6300875;22;45453;-90
2022/03/17 11:11:20;;;;;;;;;10.33;10.33;;;;;16.92;100.00;102893.72;6300854;22;45414;-87
2022/03/17 11:13:47;;;;;;;;;9.67;9.33;;;;;16.83;100.00;102904.75;6296165;22;45501;-87
2022/03/17 11:16:14;;;;;;;;;10.67;8.00;;;;;16.86;100.00;102910.22;6297590;22;45326;-88
2022/03/17 11:18:43;;;;;;;;;16.67;9.67;;;;;16.74;100.00;102916.69;6298302;22;45313;-87
2022/03/17 11:21:12;;;;;;;;;12.33;10.33;;;;;16.74;100.00;102914.06;6298516;22;47496;-88
2022/03/17 11:23:55;;;;;;;;;9.67;8.33;;;;;16.59;100.00;102902.59;6298260;22;45496;-88
2022/03/17 11:26:34;;;;;;;;;12.00;8.67;;;;;16.61;100.00;102901.84;6296951;22;45438;-89
2022/03/17 11:29:05;;;;;;;;;11.33;8.00;;;;;16.72;100.00;102909.50;6297220;22;45535;-89
2022/03/17 11:31:55;;;;;;;;;9.67;7.33;;;;;16.97;100.00;102916.13;6299247;22;47232;-91
2022/03/17 11:34:39;;;;;;;;;12.33;8.33;;;;;17.12;100.00;102915.09;6326316;22;45298;-92
2022/03/17 11:37:16;;;;;;;;;7.67;7.00;;;;;17.30;100.00;102915.19;6303340;22;45176;-92
2022/03/17 11:40:04;;;;;;;;;8.00;7.33;;;;;17.33;100.00;102915.34;6303173;22;45926;-92
2022/03/17 11:42:36;;;;;;;;;8.33;7.33;;;;;17.39;100.00;102915.69;6327423;22;48244;-91
2022/03/17 11:45:13;;;;;;;;;12.67;9.33;;;;;17.52;100.00;102917.22;6298858;22;45877;-90
2022/03/17 11:47:50;;;;;;;;;9.00;7.67;;;;;17.53;100.00;102923.44;6300083;22;45442;-90
2022/03/17 11:50:36;;;;;;;;;10.33;10.00;;;;;17.56;100.00;102926.25;6299395;22;45526;-91
2022/03/17 11:53:08;;;;;;;;;9.00;9.00;;;;;17.60;100.00;102925.56;6300442;22;45447;-88
2022/03/17 11:55:35;;;;;;;;;10.00;9.33;;;;;17.56;100.00;102925.34;6300966;22;45421;-89
2022/03/17 11:58:16;;;;;;;;;8.33;8.00;;;;;17.74;100.00;102920.06;6298729;22;45293;-91
2022/03/17 12:00:53;;;;;;;;;9.67;9.00;;;;;17.81;100.00;102926.56;6297036;22;45599;-90
2022/03/17 12:03:53;;;;;;;;;11.67;9.67;;;;;17.92;100.00;102929.78;6296733;22;46899;-91
2022/03/17 12:06:24;;;;;;;;;13.00;10.67;;;;;17.76;100.00;102929.00;6297035;22;45291;-90
2022/03/17 12:08:51;;;;;;;;;15.67;12.00;;;;;17.58;100.00;102929.91;6304376;22;45379;-91
2022/03/17 12:11:19;;;;;;;;;16.67;10.33;;;;;17.62;100.00;102930.97;6306297;22;45385;-89
2022/03/17 12:14:20;;;;;;;;;10.33;9.00;;;;;17.81;100.00;102921.25;6300980;22;46568;-93
2022/03/17 12:16:55;;;;;;;;;10.67;10.67;;;;;17.76;100.00;102929.00;6296338;22;45542;-90
2022/03/17 12:19:25;;;;;;;;;11.00;11.00;;;;;17.65;100.00;102929.38;6324518;22;45334;-90
2022/03/17 12:22:03;;;;;;;;;11.00;10.67;;;;;17.73;100.00;102932.41;6325624;22;45349;-89
2022/03/17 12:24:48;;;;;;;;;15.00;9.67;;;;;17.78;100.00;102923.78;6298193;22;46508;-89
2022/03/17 12:27:13;;;;;;;;;11.67;7.67;;;;;17.71;100.00;102933.16;6297665;22;45613;-90
2022/03/17 12:29:40;;;;;;;;;12.00;10.00;;;;;17.71;100.00;102926.13;6300184;22;45277;-91
2022/03/17 12:32:11;;;;;;;;;18.67;15.00;;;;;17.71;100.00;102925.19;6297782;22;45543;-89
2022/03/17 12:34:38;;;;;;;;;15.67;14.67;;;;;17.64;100.00;102926.66;6300288;22;46516;-89
2022/03/17 12:37:05;;;;;;;;;9.00;8.00;;;;;17.64;100.00;102931.97;6302428;22;45501;-93
2022/03/17 12:39:34;;;;;;;;;11.67;9.00;;;;;17.71;100.00;102934.09;6303520;22;45262;-94
2022/03/17 12:42:01;;;;;;;;;16.33;13.33;;;;;17.71;100.00;102933.16;6299872;22;45501;-88
2022/03/17 12:44:27;;;;;;;;;13.00;9.33;;;;;17.75;100.00;102935.16;6301491;22;45323;-88
2022/03/17 12:46:55;;;;;;;;;14.33;10.00;;;;;17.78;100.00;102924.69;6301376;22;45618;-88
2022/03/17 12:49:21;;;;;;;;;10.33;8.00;;;;;17.79;100.00;102930.91;6299115;22;45412;-89
2022/03/17 12:51:49;;;;;;;;;10.00;9.00;;;;;17.84;100.00;102930.31;6301911;22;45626;-89
2022/03/17 12:54:15;;;;;;;;;10.00;10.00;;;;;17.85;100.00;102923.25;6301849;22;45887;-88
2022/03/17 12:56:48;;;;;;;;;14.67;13.00;;;;;17.96;100.00;102924.69;6300264;22;45577;-89
2022/03/17 12:59:13;;;;;;;;;13.33;11.67;;;;;17.85;100.00;102925.91;6297141;22;45576;-89
2022/03/17 13:01:42;;;;;;;;;12.00;9.67;;;;;18.00;100.00;102919.53;6296353;22;45346;-88
2022/03/17 13:04:07;;;;;;;;;12.33;11.33;;;;;17.94;100.00;102929.03;6300360;22;45729;-88
2022/03/17 13:06:54;;;;;;;;;10.00;10.00;;;;;17.99;100.00;102931.91;6325590;22;45674;-89
2022/03/17 13:09:29;;;;;;;;;13.67;10.00;;;;;17.93;100.00;102923.66;6299300;22;45326;-88
2022/03/17 13:14:52;;;;;;;;;10.67;10.67;;;;;17.90;100.00;102937.69;6299785;22;45807;-89
2022/03/17 13:17:29;;;;;;;;;11.00;6.33;;;;;18.05;100.00;102929.56;6301322;22;45493;-88
2022/03/17 13:19:56;;;;;;;;;11.33;10.67;;;;;17.93;100.00;102927.22;6301284;22;45430;-88
2022/03/17 13:22:25;;;;;;;;;10.33;10.00;;;;;18.00;100.00;102935.47;6300978;22;45555;-89
2022/03/17 13:25:09;;;;;;;;;11.67;11.00;;;;;17.94;100.00;102936.06;6299958;22;46005;-88
2022/03/17 13:27:39;;;;;;;;;12.33;11.67;;;;;17.86;100.00;102933.03;6299279;22;45414;-89
2022/03/17 13:30:10;;;;;;;;;10.33;10.00;;;;;17.85;100.00;102933.88;6298116;22;45387;-89
2022/03/17 13:32:35;;;;;;;;;10.33;8.67;;;;;17.75;100.00;102929.84;6299304;22;45363;-89
2022/03/17 13:35:03;;;;;;;;;14.33;10.00;;;;;17.85;100.00;102934.81;6298305;22;46170;-87
2022/03/17 13:37:37;;;;;;;;;16.67;13.00;;;;;17.91;100.00;102925.31;6297237;22;45201;-89
2022/03/17 13:40:05;;;;;;;;;16.00;11.67;;;;;17.92;100.00;102929.78;6295323;22;45265;-88
2022/03/17 13:42:30;;;;;;;;;13.67;13.33;;;;;17.86;100.00;102925.06;6299050;22;45329;-88
2022/03/17 13:44:56;;;;;;;;;16.33;11.33;;;;;17.87;100.00;102926.91;6297821;22;46125;-88
2022/03/17 13:47:27;;;;;;;;;17.67;13.00;;;;;17.92;100.00;102929.78;6295707;22;45273;-89
2022/03/17 13:50:09;;;;;;;;;16.33;15.00;;;;;17.88;100.00;102928.72;6296003;22;45764;-88
2022/03/17 13:52:35;;;;;;;;;17.00;13.00;;;;;17.67;100.00;102942.75;6299879;22;45324;-88
2022/03/17 13:55:00;;;;;;;;;17.33;13.67;;;;;17.61;100.00;102930.06;6298971;22;46821;-88
2022/03/17 13:57:26;;;;;;;;;15.00;15.00;;;;;17.63;100.00;102933.69;6303889;22;45299;-87
2022/03/17 13:59:51;;;;;;;;;21.33;15.33;;;;;17.70;100.00;102921.66;6299452;22;45433;-89
2022/03/17 14:02:21;;;;;;;;;15.67;14.67;;;;;17.82;100.00;102928.41;6323202;22;45575;-89
2022/03/17 14:04:54;;;;;;;;;14.00;12.00;;;;;17.84;100.00;102940.94;6297259;22;47947;-89
2022/03/17 14:07:20;;;;;;;;;13.67;11.67;;;;;17.75;100.00;102940.47;6301009;22;45319;-88
2022/03/17 14:09:45;;;;;;;;;13.00;11.67;;;;;17.75;100.00;102935.16;6301466;22;45221;-89
2022/03/17 14:12:11;;;;;;;;;19.67;16.00;;;;;17.78;100.00;102943.28;6302355;22;45296;-88
2022/03/17 14:14:36;;;;;;;;;20.00;18.00;;;;;17.75;100.00;102937.81;6302039;22;45526;-88
2022/03/17 14:17:02;;;;;;;;;17.67;14.33;;;;;17.69;100.00;102945.47;6303060;22;45247;-88
2022/03/17 14:19:27;;;;;;;;;12.67;10.33;;;;;17.65;100.00;102953.28;6325463;22;45548;-88
2022/03/17 14:24:38;;;;;;;;;11.33;11.33;;;;;17.52;100.00;102950.84;6299580;22;45821;-88
2022/03/17 14:27:03;;;;;;;;;15.67;12.00;;;;;17.44;100.00;102955.75;6297814;22;45836;-88
2022/03/17 14:29:29;;;;;;;;;11.00;10.00;;;;;17.36;100.00;102949.13;6298134;22;45336;-88
2022/03/17 14:31:54;;;;;;;;;19.00;15.67;;;;;17.38;100.00;102950.09;6301233;22;45318;-90
2022/03/17 14:34:22;;;;;;;;;17.33;17.00;;;;;17.40;100.00;102951.09;6298174;22;46696;-91
2022/03/17 14:36:47;;;;;;;;;23.33;18.33;;;;;17.39;100.00;102958.16;6299348;22;45327;-89
2022/03/17 14:39:14;;;;;;;;;22.00;20.33;;;;;17.43;100.00;102953.91;6300288;22;45608;-89
2022/03/17 14:41:40;;;;;;;;;19.00;16.00;;;;;17.37;100.00;102948.28;6299486;22;45676;-89
2022/03/17 14:44:07;;;;;;;;;17.00;13.33;;;;;17.36;100.00;102959.72;6299405;22;45385;-89
2022/03/17 14:46:32;;;;;;;;;10.33;10.33;;;;;17.29;100.00;102963.81;6298433;22;45925;-89
2022/03/17 14:49:01;;;;;;;;;14.33;13.00;;;;;17.36;100.00;102960.66;6298893;22;45631;-89
2022/03/17 14:51:26;;;;;;;;;15.33;12.33;;;;;17.28;100.00;102967.28;6298785;22;45335;-89
2022/03/17 14:53:53;;;;;;;;;11.33;10.33;;;;;17.21;100.00;102971.38;6300316;22;45947;-92
2022/03/17 14:56:20;;;;;;;;;14.33;13.67;;;;;17.13;100.00;102965.63;6299239;22;45297;-89
2022/03/17 14:58:48;;;;;;;;;12.67;10.67;;;;;17.15;100.00;102971.91;6299136;22;45640;-89
2022/03/17 15:01:16;;;;;;;;;15.67;12.33;;;;;17.15;100.00;102973.66;6297307;22;45384;-89
2022/03/17 15:03:42;;;;;;;;;12.67;9.00;;;;;17.05;100.00;102974.88;6298904;22;48204;-88
2022/03/17 15:06:10;;;;;;;;;13.67;11.33;;;;;17.02;100.00;102964.09;6300877;22;45333;-88
2022/03/17 15:08:36;;;;;;;;;15.33;12.00;;;;;16.93;100.00;102969.84;6294005;22;45370;-88
2022/03/17 15:11:02;;;;;;;;;14.00;11.33;;;;;16.81;100.00;102976.28;6299648;22;45782;-88
2022/03/17 15:13:27;;;;;;;;;13.67;11.00;;;;;16.79;100.00;102977.03;6300103;22;47161;-88
2022/03/17 15:15:52;;;;;;;;;15.33;12.33;;;;;16.80;100.00;102969.13;6314688;22;45224;-88
2022/03/17 15:18:18;;;;;;;;;12.00;12.00;;;;;16.86;100.00;102980.09;6321636;22;45362;-89
2022/03/17 15:20:43;;;;;;;;;11.33;11.33;;;;;16.83;100.00;102973.69;6309313;22;45546;-90
2022/03/17 15:23:08;;;;;;;;;15.00;12.33;;;;;16.86;100.00;102976.53;6303531;22;47328;-90
2022/03/17 15:25:34;;;;;;;;;16.33;13.33;;;;;16.77;100.00;102984.91;6299201;22;57215;-89
2022/03/17 15:30:43;;;;;;;;;14.67;12.33;;;;;16.69;100.00;102979.16;6298937;22;45363;-89
2022/03/17 15:33:09;;;;;;;;;11.33;11.00;;;;;16.69;100.00;102992.44;6298105;22;45584;-90
2022/03/17 15:35:34;;;;;;;;;17.00;15.67;;;;;16.60;100.00;102987.50;6299612;22;45680;-90
2022/03/17 15:38:01;;;;;;;;;11.00;11.00;;;;;16.62;100.00;102992.91;6299140;22;45795;-89
2022/03/17 15:40:31;;;;;;;;;16.67;14.00;;;;;16.55;100.00;102993.38;6292967;22;45416;-88
2022/03/17 15:42:58;;;;;;;;;9.33;9.33;;;;;16.45;100.00;102990.22;6297011;22;46260;-87
2022/03/17 15:45:23;;;;;;;;;12.00;11.67;;;;;16.40;100.00;102997.91;6322631;22;45382;-87
2022/03/17 15:47:48;;;;;;;;;13.33;13.00;;;;;16.36;100.00;103002.94;6297335;22;45312;-88
2022/03/17 15:50:14;;;;;;;;;18.33;12.33;;;;;16.29;100.00;102993.69;6296985;22;45394;-87
2022/03/17 15:52:40;;;;;;;;;14.67;11.33;;;;;16.27;100.00;102998.94;6290655;22;46273;-90
2022/03/17 15:55:06;;;;;;;;;12.33;12.33;;;;;16.22;100.00;103003.03;6295795;22;45335;-87
2022/03/17 15:57:31;;;;;;;;;20.00;18.67;;;;;16.14;100.00;103007.91;6299251;22;45277;-88
2022/03/17 15:59:57;;;;;;;;;23.00;21.50;;;;;16.06;100.00;103007.44;6298106;22;45457;-89
2022/03/17 16:02:22;;;;;;;;;21.00;19.75;;;;;16.02;100.00;103007.16;6322660;22;46957;-89
2022/03/17 16:04:48;;;;;;;;;24.00;19.75;;;;;15.97;100.00;103004.22;6297005;22;45261;-89
2022/03/17 16:07:13;;;;;;;;;19.33;16.00;;;;;15.92;100.00;103003.03;6300673;22;45341;-89
2022/03/17 16:15:07;;;;;;;;;21.00;14.67;;;;;15.74;100.00;103006.41;6302861;22;45380;-88
2022/03/17 16:17:32;;;;;;;;;14.00;10.00;;;;;15.67;100.00;102999.81;6300648;22;45830;-89
2022/03/17 16:19:58;;;;;;;;;16.33;15.33;;;;;15.64;100.00;103013.78;6302551;22;45290;-89
2022/03/17 16:22:28;;;;;;;;;21.00;15.67;;;;;15.64;100.00;103016.44;6294827;22;47272;-88
2022/03/17 16:24:54;;;;;;;;;18.00;14.67;;;;;15.52;100.00;103013.97;6302387;22;45537;-89
2022/03/17 16:27:19;;;;;;;;;16.33;13.67;;;;;15.47;100.00;103020.69;6301216;22;45568;-89
2022/03/17 16:29:44;;;;;;;;;10.00;10.00;;;;;15.36;100.00;103013.84;6303273;22;45434;-89
2022/03/17 16:32:10;;;;;;;;;15.00;13.67;;;;;15.31;100.00;103026.75;6329256;22;48016;-89
2022/03/17 16:34:35;;;;;;;;;18.67;16.00;;;;;15.28;100.00;103029.25;6303904;22;45398;-90
2022/03/17 16:37:04;;;;;;;;;15.00;15.00;;;;;15.26;100.00;103034.41;6301161;22;45528;-89
2022/03/17 16:39:30;;;;;;;;;12.33;12.00;;;;;15.24;100.00;103037.78;6299001;22;45470;-89
2022/03/17 16:41:55;;;;;;;;;14.67;14.00;;;;;15.20;100.00;103028.75;6298009;22;47480;-89
2022/03/17 16:44:20;;;;;;;;;17.33;17.00;;;;;15.19;100.00;103041.06;6297775;22;45856;-90
2022/03/17 16:46:47;;;;;;;;;15.33;14.00;;;;;15.15;100.00;103035.50;6300554;22;46933;-90
2022/03/17 16:49:12;;;;;;;;;16.33;15.00;;;;;15.10;100.00;103034.28;6298839;22;45544;-89
2022/03/17 16:51:38;;;;;;;;;13.67;13.00;;;;;15.10;100.00;103043.09;6299915;22;45510;-89
2022/03/17 16:54:04;;;;;;;;;15.33;12.00;;;;;14.98;100.00;103037.97;6297623;22;45364;-90
2022/03/17 16:56:29;;;;;;;;;15.67;13.00;;;;;14.94;100.00;103041.22;6300728;22;45783;-89
2022/03/17 16:58:54;;;;;;;;;21.67;16.00;;;;;14.89;100.00;103043.59;6299816;22;45350;-89
2022/03/17 17:01:20;;;;;;;;;16.00;14.33;;;;;14.85;100.00;103045.06;6300218;22;45989;-88
2022/03/17 17:03:45;;;;;;;;;17.67;15.67;;;;;14.84;100.00;103051.16;6300214;22;45331;-89
2022/03/17 17:06:12;;;;;;;;;19.33;16.33;;;;;14.84;100.00;103047.63;6301502;22;45372;-89
2022/03/17 17:08:39;;;;;;;;;16.33;15.33;;;;;14.81;100.00;103055.34;6300951;22;45368;-88
2022/03/17 17:11:05;;;;;;;;;16.00;12.67;;;;;14.77;100.00;103051.59;6301860;22;45275;-88
2022/03/17 17:13:31;;;;;;;;;19.67;14.33;;;;;14.69;100.00;103056.38;6326159;22;45387;-88
2022/03/17 17:15:58;;;;;;;;;15.33;12.33;;;;;14.68;100.00;103059.84;6302410;22;45424;-88
2022/03/17 17:18:24;;;;;;;;;17.00;13.33;;;;;14.61;100.00;103063.78;6299185;22;45387;-89
2022/03/17 17:20:49;;;;;;;;;19.67;15.00;;;;;14.52;100.00;103061.47;6299511;22;46255;-91
2022/03/17 17:31:28;;;;;;;;;16.67;13.33;;;;;14.32;100.00;103069.78;6300109;22;45715;-89
2022/03/17 17:33:54;;;;;;;;;17.33;13.00;;;;;14.32;100.00;103067.16;6297390;22;45690;-89
2022/03/17 17:36:19;;;;;;;;;16.00;14.00;;;;;14.28;100.00;103080.13;6299810;22;45301;-90
2022/03/17 17:38:45;;;;;;;;;27.75;23.50;;;;;14.22;100.00;103079.75;6298121;22;45421;-89
2022/03/17 17:41:10;;;;;;;;;20.33;14.33;;;;;14.18;100.00;103086.53;6300689;22;45437;-89
2022/03/17 17:43:36;;;;;;;;;18.67;18.67;;;;;14.13;100.00;103082.66;6300592;22;45347;-89
2022/03/17 17:46:03;;;;;;;;;17.33;14.33;;;;;14.17;100.00;103092.59;6297960;22;45627;-89
2022/03/17 17:48:31;;;;;;;;;25.67;21.00;;;;;14.07;100.00;103090.19;6298114;22;45344;-89
2022/03/17 17:50:57;;;;;;;;;19.00;17.00;;;;;14.01;100.00;103093.31;6299923;22;45346;-89
2022/03/17 17:53:22;;;;;;;;;20.67;19.00;;;;;14.02;100.00;103096.88;6300289;22;45348;-89
2022/03/17 17:55:47;;;;;;;;;25.67;20.67;;;;;14.01;100.00;103102.94;6300950;22;45335;-89
2022/03/17 17:58:13;;;;;;;;;27.50;25.25;;;;;13.95;100.00;103098.16;6299747;22;45409;-89
2022/03/17 18:00:39;;;;;;;;;26.75;23.25;;;;;13.91;100.00;103099.69;6299592;22;47012;-89
2022/03/17 18:03:05;;;;;;;;;30.50;27.75;;;;;13.88;100.00;103099.47;6298088;22;45413;-88
2022/03/17 18:05:30;;;;;;;;;30.75;29.00;;;;;13.85;100.00;103109.78;6323962;22;45406;-89
2022/03/17 18:07:56;;;;;;;;;20.00;20.00;;;;;13.82;100.00;103113.13;6298460;22;45684;-89
2022/03/17 18:10:24;;;;;;;;;17.00;13.33;;;;;13.82;100.00;103105.22;6325008;22;47289;-89
2022/03/17 18:12:54;;;;;;;;;23.00;18.00;;;;;13.77;100.00;103111.91;6298578;22;45798;-88
2022/03/17 18:15:28;;;;;;;;;30.00;23.25;;;;;13.82;100.00;103110.50;6329238;22;45914;-89
2022/03/17 18:18:02;;;;;;;;;19.67;18.33;;;;;13.77;100.00;103113.63;6329181;22;45355;-89
2022/03/17 18:20:29;;;;;;;;;23.00;22.25;;;;;13.75;100.00;103118.78;6296400;22;45544;-90
2022/03/17 18:22:55;;;;;;;;;19.33;19.00;;;;;13.67;100.00;103120.91;6300061;22;45378;-89
2022/03/17 18:25:21;;;;;;;;;23.75;20.50;;;;;13.63;100.00;103130.31;6298575;22;45530;-89
2022/03/17 18:27:47;;;;;;;;;20.67;17.67;;;;;13.58;100.00;103129.06;6298954;22;45392;-89
2022/03/17 18:30:13;;;;;;;;;30.33;25.33;;;;;13.57;100.00;103132.53;6298332;22;48074;-89
2022/03/17 18:32:39;;;;;;;;;23.67;22.00;;;;;13.51;100.00;103135.59;6298508;22;46224;-88
2022/03/17 18:35:05;;;;;;;;;29.00;25.75;;;;;13.53;100.00;103140.97;6324341;22;45266;-89
2022/03/17 18:37:30;;;;;;;;;21.00;20.00;;;;;13.50;100.00;103149.59;6298368;22;45392;-88
2022/03/17 18:39:56;;;;;;;;;18.67;18.00;;;;;13.47;100.00;103149.38;6325265;22;46966;-88
2022/03/17 18:42:21;;;;;;;;;29.00;24.25;;;;;13.43;100.00;103146.38;6300540;22;45267;-89
2022/03/17 18:44:46;;;;;;;;;24.75;19.25;;;;;13.39;100.00;103154.09;6300341;22;45292;-89
2022/03/17 18:47:12;;;;;;;;;25.33;22.33;;;;;13.34;100.00;103152.84;6301532;22;45291;-88
2022/03/17 18:49:37;;;;;;;;;24.00;19.67;;;;;13.35;100.00;103161.69;6300251;22;51354;-89
2022/03/17 18:52:04;;;;;;;;;28.25;24.50;;;;;13.38;100.00;103162.81;6298705;22;45299;-90
2022/03/17 18:54:29;;;;;;;;;29.75;20.75;;;;;13.30;100.00;103163.97;6306341;22;45304;-90
2022/03/17 18:56:55;;;;;;;;;26.00;21.25;;;;;13.30;100.00;103163.97;6312791;22;45295;-89
2022/03/17 18:59:20;;;;;;;;;30.50;25.75;;;;;13.29;100.00;103168.34;6332049;22;47904;-89
2022/03/17 19:01:48;;;;;;;;;24.33;22.33;;;;;13.27;100.00;103172.56;6303672;22;45238;-90
2022/03/17 19:04:16;;;;;;;;;12.67;12.67;;;;;13.34;100.00;103167.75;6302032;22;45303;-90